Terminal Aerodrome Forecast
Issued by NWS

Home | Current Version | Previous Version | Text Only | Print | Product List | Glossary On
Versions: 1 2 3 4 5 6 7 8 9 10 11 12 13 14
000
FTUS43 KAPX 190520
TAFAPN
TAF
KAPN 190520Z 1906/2006 08004KT P6SM SKC
     FM191000 10007KT P6SM SCT250 WS015/13030KT
     FM191400 10013G22KT P6SM SCT120 BKN200
     FM192200 10014G23KT P6SM VCSH SCT040 OVC080
     FM200200 08011G20KT 5SM -RA BR SCT025 OVC040=

USA.gov is the U.S. government's official web portal to all federal, state and local government web resources and services.